Ronan, MT (59864)

8:11 PM MST on December 05, 2016 (GMT -0700)
Monte's Place Davis | | Change Station
Active Advisory: Wind Chill Advisory

Elev 3130 ft 47.61 °N, 114.10 °W | Updated 8 seconds ago

Overcast
Overcast
21.3 °F
Feels Like 21 °F
N
0.0
Wind Variable Wind from North
Gusts 0.0 mph

Today
High -- | Low -- °F
--% Chance of Precip.
Yesterday
High -- | Low -- °F
Precip. -- in
Pressure 30.15 in
Visibility 10.0 miles
Clouds Overcast 7000 ft
Windchill 21 °F
Dew Point 18 °F
Humidity 87%
Rainfall 0.00 in
Snow Depth Not available.
8:08 AM 4:45 PM
Waxing Crescent, 37% visible
METAR KMSO 060253Z 00000KT 10SM OVC070 M06/M08 A3002 RMK AO2 SLP209 T10561083 58002
Pressure 30.15 in
Visibility 10.0 miles
Clouds Overcast 7000 ft
Windchill 21 °F
Dew Point 18 °F
Humidity 87%
Rainfall 0.00 in
Snow Depth Not available.
8:08 AM 4:45 PM
Waxing Crescent, 37% visible
METAR KMSO 060253Z 00000KT 10SM OVC070 M06/M08 A3002 RMK AO2 SLP209 T10561083 58002

10-Day Weather Forecast

Almanac

Astronomy

Dec. 05, 2016 Rise Set
Actual Time
Civil Twilight
Nautical Twilight
Astronomical Twilight
Moon
Length of Visible Light
Length of Day
Tomorrow will be .
, % of the Moon is Illuminated

Today's Extremes

State Highs State Lows

Community

WunderPhotos

Upload Photos

1,955,916 photos uploaded!

WunderBlog® & News

Nearby

Air Quality

  Air Quality AQ Index Pollutant
Not available.

Snow Depth

Station Depth Elevation

Earthquake Activity

City Distance Mag. Time & Date
Minimum magnitude displayed is 2.5.

Coastal Water Temperatures

Place Temperature

Stations

Nearby Weather Stations

Station Location Temp. Windchill Dew Point Humidity Wind Precip. Elev Updated Type
                   

Watches & Warnings

Wind Chill Advisory
Issued: 2:21 PM MST Dec. 5, 2016 – National Weather Service

... Wind Chill Advisory in effect from midnight tonight to noon
MST Wednesday...

... Freezing spray possible on Flathead Lake tonight through
Wednesday...

The National Weather Service in Missoula has issued a Wind Chill
Advisory... which is in effect from midnight tonight to noon MST
Wednesday.

* Impacts/timing: temperatures will continue drop tonight and wind
will increase. Very cold wind chills are expected tonight and
again Tuesday night.

* Freezing spray: High Lake levels, particularly Flathead Lake,
along with wind and cold temperatures will bring the threat for
icing on docks and boats. The south and southwest side of the
lake has the greatest freezing spray threat tonight through
Wednesday.

* Wind chill values: 10 to 15 degrees below zero during the
mornings and around zero during the day.

* Locations impacted include: Flathead Lake, Flathead Valley,
Mission Valley, and Polson